sensor_id;sensor_type;location;lat;lon;timestamp;temperature;humidity
1155;DHT22;566;48.414;9.118;2022-11-13T00:00:36;2.40;72.90
1155;DHT22;566;48.414;9.118;2022-11-13T00:03:02;2.30;72.90
1155;DHT22;566;48.414;9.118;2022-11-13T00:05:28;2.30;73.60
1155;DHT22;566;48.414;9.118;2022-11-13T00:07:53;2.40;72.00
1155;DHT22;566;48.414;9.118;2022-11-13T00:10:22;2.40;71.20
1155;DHT22;566;48.414;9.118;2022-11-13T00:12:47;2.50;71.60
1155;DHT22;566;48.414;9.118;2022-11-13T00:15:13;2.50;71.50
1155;DHT22;566;48.414;9.118;2022-11-13T00:17:39;2.50;71.60
1155;DHT22;566;48.414;9.118;2022-11-13T00:20:05;2.50;71.00
1155;DHT22;566;48.414;9.118;2022-11-13T00:22:33;2.40;72.40
1155;DHT22;566;48.414;9.118;2022-11-13T00:24:59;2.40;72.20
1155;DHT22;566;48.414;9.118;2022-11-13T00:27:25;2.40;71.60
1155;DHT22;566;48.414;9.118;2022-11-13T00:29:50;2.30;73.00
1155;DHT22;566;48.414;9.118;2022-11-13T00:32:16;2.30;72.50
1155;DHT22;566;48.414;9.118;2022-11-13T00:34:42;2.30;71.60
1155;DHT22;566;48.414;9.118;2022-11-13T00:37:07;2.40;70.30
1155;DHT22;566;48.414;9.118;2022-11-13T00:39:33;2.30;70.90
1155;DHT22;566;48.414;9.118;2022-11-13T00:41:58;2.30;71.10
1155;DHT22;566;48.414;9.118;2022-11-13T00:44:24;2.30;71.20
1155;DHT22;566;48.414;9.118;2022-11-13T00:46:50;2.30;70.20
1155;DHT22;566;48.414;9.118;2022-11-13T00:49:15;2.40;70.30
1155;DHT22;566;48.414;9.118;2022-11-13T00:51:42;2.30;70.30
1155;DHT22;566;48.414;9.118;2022-11-13T00:54:07;2.40;69.10
1155;DHT22;566;48.414;9.118;2022-11-13T00:56:33;2.40;68.90
1155;DHT22;566;48.414;9.118;2022-11-13T00:58:59;2.60;68.70
1155;DHT22;566;48.414;9.118;2022-11-13T01:01:24;2.60;68.80
1155;DHT22;566;48.414;9.118;2022-11-13T01:03:50;2.50;69.40
1155;DHT22;566;48.414;9.118;2022-11-13T01:06:19;2.40;69.30
1155;DHT22;566;48.414;9.118;2022-11-13T01:08:48;2.40;69.00
1155;DHT22;566;48.414;9.118;2022-11-13T01:11:17;2.50;67.90
1155;DHT22;566;48.414;9.118;2022-11-13T01:13:45;2.50;69.50
1155;DHT22;566;48.414;9.118;2022-11-13T01:16:14;2.40;69.30
1155;DHT22;566;48.414;9.118;2022-11-13T01:18:41;2.30;70.20
1155;DHT22;566;48.414;9.118;2022-11-13T01:21:19;2.30;69.20
1155;DHT22;566;48.414;9.118;2022-11-13T01:23:45;2.40;68.30
1155;DHT22;566;48.414;9.118;2022-11-13T01:26:19;2.40;68.50
1155;DHT22;566;48.414;9.118;2022-11-13T01:28:46;2.50;68.10
1155;DHT22;566;48.414;9.118;2022-11-13T01:31:17;2.40;68.70
1155;DHT22;566;48.414;9.118;2022-11-13T01:33:44;2.40;68.20
1155;DHT22;566;48.414;9.118;2022-11-13T01:36:16;2.40;69.20
1155;DHT22;566;48.414;9.118;2022-11-13T01:38:41;2.30;69.50
1155;DHT22;566;48.414;9.118;2022-11-13T01:41:16;2.20;69.50
1155;DHT22;566;48.414;9.118;2022-11-13T01:43:42;2.10;68.70
1155;DHT22;566;48.414;9.118;2022-11-13T01:46:16;2.10;68.50
1155;DHT22;566;48.414;9.118;2022-11-13T01:48:47;2.10;68.00
1155;DHT22;566;48.414;9.118;2022-11-13T01:51:30;2.00;68.50
1155;DHT22;566;48.414;9.118;2022-11-13T01:53:57;1.90;69.10
1155;DHT22;566;48.414;9.118;2022-11-13T01:56:28;1.80;69.40
1155;DHT22;566;48.414;9.118;2022-11-13T01:59:19;1.80;68.10
1155;DHT22;566;48.414;9.118;2022-11-13T02:01:46;1.70;69.40
1155;DHT22;566;48.414;9.118;2022-11-13T02:04:14;1.60;69.80
1155;DHT22;566;48.414;9.118;2022-11-13T02:06:58;1.40;70.80
1155;DHT22;566;48.414;9.118;2022-11-13T02:09:45;1.30;69.20
1155;DHT22;566;48.414;9.118;2022-11-13T02:12:14;1.30;68.60
1155;DHT22;566;48.414;9.118;2022-11-13T02:14:43;1.30;68.90
1155;DHT22;566;48.414;9.118;2022-11-13T02:17:13;1.30;68.30
1155;DHT22;566;48.414;9.118;2022-11-13T02:19:43;1.30;68.10
1155;DHT22;566;48.414;9.118;2022-11-13T02:24:45;1.30;68.10
1155;DHT22;566;48.414;9.118;2022-11-13T02:27:34;1.30;68.50
1155;DHT22;566;48.414;9.118;2022-11-13T02:30:31;1.20;69.10
1155;DHT22;566;48.414;9.118;2022-11-13T02:32:59;1.20;68.30
1155;DHT22;566;48.414;9.118;2022-11-13T02:35:31;1.10;68.90
1155;DHT22;566;48.414;9.118;2022-11-13T02:37:59;1.00;69.10
1155;DHT22;566;48.414;9.118;2022-11-13T02:40:25;0.90;69.10
1155;DHT22;566;48.414;9.118;2022-11-13T02:42:51;1.00;67.70
1155;DHT22;566;48.414;9.118;2022-11-13T02:45:17;1.00;68.10
1155;DHT22;566;48.414;9.118;2022-11-13T02:47:43;1.10;67.20
1155;DHT22;566;48.414;9.118;2022-11-13T02:50:09;1.10;67.50
1155;DHT22;566;48.414;9.118;2022-11-13T02:52:35;1.10;68.40
1155;DHT22;566;48.414;9.118;2022-11-13T02:55:01;1.10;67.70
1155;DHT22;566;48.414;9.118;2022-11-13T02:57:26;1.00;68.40
1155;DHT22;566;48.414;9.118;2022-11-13T02:59:52;0.90;68.80
1155;DHT22;566;48.414;9.118;2022-11-13T03:02:18;0.70;69.10
1155;DHT22;566;48.414;9.118;2022-11-13T03:04:44;0.70;67.80
1155;DHT22;566;48.414;9.118;2022-11-13T03:07:11;0.70;68.00
1155;DHT22;566;48.414;9.118;2022-11-13T03:09:38;0.80;67.30
1155;DHT22;566;48.414;9.118;2022-11-13T03:12:04;0.90;66.80
1155;DHT22;566;48.414;9.118;2022-11-13T03:14:31;1.00;66.90
1155;DHT22;566;48.414;9.118;2022-11-13T03:16:56;1.20;66.60
1155;DHT22;566;48.414;9.118;2022-11-13T03:19:22;1.40;66.50
1155;DHT22;566;48.414;9.118;2022-11-13T03:21:48;1.30;67.50
1155;DHT22;566;48.414;9.118;2022-11-13T03:24:13;1.30;67.20
1155;DHT22;566;48.414;9.118;2022-11-13T03:26:39;1.30;66.90
1155;DHT22;566;48.414;9.118;2022-11-13T03:29:05;1.40;66.90
1155;DHT22;566;48.414;9.118;2022-11-13T03:31:30;1.30;67.30
1155;DHT22;566;48.414;9.118;2022-11-13T03:33:56;1.30;67.20
1155;DHT22;566;48.414;9.118;2022-11-13T03:36:21;1.30;67.10
1155;DHT22;566;48.414;9.118;2022-11-13T03:38:47;1.20;67.30
1155;DHT22;566;48.414;9.118;2022-11-13T03:41:13;1.30;66.60
1155;DHT22;566;48.414;9.118;2022-11-13T03:43:41;1.40;66.70
1155;DHT22;566;48.414;9.118;2022-11-13T03:46:07;1.30;67.30
1155;DHT22;566;48.414;9.118;2022-11-13T03:48:36;1.20;67.40
1155;DHT22;566;48.414;9.118;2022-11-13T03:51:02;1.00;68.40
1155;DHT22;566;48.414;9.118;2022-11-13T03:53:27;1.00;67.40
1155;DHT22;566;48.414;9.118;2022-11-13T03:55:53;1.10;66.70
1155;DHT22;566;48.414;9.118;2022-11-13T03:58:19;1.20;66.70
1155;DHT22;566;48.414;9.118;2022-11-13T04:00:46;1.10;67.40
1155;DHT22;566;48.414;9.118;2022-11-13T04:03:12;1.00;67.60
1155;DHT22;566;48.414;9.118;2022-11-13T04:05:38;0.90;67.70
1155;DHT22;566;48.414;9.118;2022-11-13T04:08:04;0.90;67.40
1155;DHT22;566;48.414;9.118;2022-11-13T04:10:29;0.80;67.80
1155;DHT22;566;48.414;9.118;2022-11-13T04:13:01;0.70;68.30
1155;DHT22;566;48.414;9.118;2022-11-13T04:15:32;0.70;67.60
1155;DHT22;566;48.414;9.118;2022-11-13T04:17:58;0.60;67.70
1155;DHT22;566;48.414;9.118;2022-11-13T04:20:27;0.50;67.90
1155;DHT22;566;48.414;9.118;2022-11-13T04:22:54;0.50;67.30
1155;DHT22;566;48.414;9.118;2022-11-13T04:25:20;0.50;67.60
1155;DHT22;566;48.414;9.118;2022-11-13T04:27:47;0.40;67.50
1155;DHT22;566;48.414;9.118;2022-11-13T04:30:13;0.40;67.50
1155;DHT22;566;48.414;9.118;2022-11-13T04:32:39;0.30;68.40
1155;DHT22;566;48.414;9.118;2022-11-13T04:35:05;0.30;67.70
1155;DHT22;566;48.414;9.118;2022-11-13T04:37:31;0.20;68.00
1155;DHT22;566;48.414;9.118;2022-11-13T04:39:56;0.10;68.50
1155;DHT22;566;48.414;9.118;2022-11-13T04:42:22;-0.10;68.90
1155;DHT22;566;48.414;9.118;2022-11-13T04:45:07;-0.20;68.90
1155;DHT22;566;48.414;9.118;2022-11-13T04:47:33;-0.30;68.50
1155;DHT22;566;48.414;9.118;2022-11-13T04:49:58;-0.40;68.50
1155;DHT22;566;48.414;9.118;2022-11-13T04:52:24;-0.40;67.60
1155;DHT22;566;48.414;9.118;2022-11-13T04:54:49;-0.40;67.60
1155;DHT22;566;48.414;9.118;2022-11-13T04:57:15;-0.50;68.30
1155;DHT22;566;48.414;9.118;2022-11-13T04:59:41;-0.60;68.60
1155;DHT22;566;48.414;9.118;2022-11-13T05:02:06;-0.70;68.20
1155;DHT22;566;48.414;9.118;2022-11-13T05:04:32;-0.70;68.30
1155;DHT22;566;48.414;9.118;2022-11-13T05:06:58;-0.80;67.70
1155;DHT22;566;48.414;9.118;2022-11-13T05:09:26;-0.80;68.00
1155;DHT22;566;48.414;9.118;2022-11-13T05:11:52;-0.80;68.00
1155;DHT22;566;48.414;9.118;2022-11-13T05:14:18;-0.80;67.70
1155;DHT22;566;48.414;9.118;2022-11-13T05:16:43;-0.80;67.40
1155;DHT22;566;48.414;9.118;2022-11-13T05:19:09;-0.70;67.40
1155;DHT22;566;48.414;9.118;2022-11-13T05:21:36;-0.50;66.80
1155;DHT22;566;48.414;9.118;2022-11-13T05:24:02;-0.40;67.00
1155;DHT22;566;48.414;9.118;2022-11-13T05:26:28;-0.30;66.90
1155;DHT22;566;48.414;9.118;2022-11-13T05:28:58;-0.20;66.90
1155;DHT22;566;48.414;9.118;2022-11-13T05:31:24;-0.20;66.80
1155;DHT22;566;48.414;9.118;2022-11-13T05:33:50;-0.10;66.90
1155;DHT22;566;48.414;9.118;2022-11-13T05:36:17;-0.20;67.00
1155;DHT22;566;48.414;9.118;2022-11-13T05:38:43;-0.20;67.30
1155;DHT22;566;48.414;9.118;2022-11-13T05:41:12;-0.30;67.60
1155;DHT22;566;48.414;9.118;2022-11-13T05:43:38;-0.30;67.10
1155;DHT22;566;48.414;9.118;2022-11-13T05:48:35;-0.30;67.30
1155;DHT22;566;48.414;9.118;2022-11-13T05:53:27;-0.40;67.20
1155;DHT22;566;48.414;9.118;2022-11-13T05:55:53;-0.30;67.00
1155;DHT22;566;48.414;9.118;2022-11-13T05:58:19;-0.30;67.30
1155;DHT22;566;48.414;9.118;2022-11-13T06:00:45;-0.40;67.20
1155;DHT22;566;48.414;9.118;2022-11-13T06:03:10;-0.40;67.30
1155;DHT22;566;48.414;9.118;2022-11-13T06:05:36;-0.40;67.30
1155;DHT22;566;48.414;9.118;2022-11-13T06:08:02;-0.40;67.40
1155;DHT22;566;48.414;9.118;2022-11-13T06:10:27;-0.50;67.60
1155;DHT22;566;48.414;9.118;2022-11-13T06:12:56;-0.50;67.40
1155;DHT22;566;48.414;9.118;2022-11-13T06:15:21;-0.60;67.80
1155;DHT22;566;48.414;9.118;2022-11-13T06:17:47;-0.60;67.50
1155;DHT22;566;48.414;9.118;2022-11-13T06:20:14;-0.70;68.00
1155;DHT22;566;48.414;9.118;2022-11-13T06:22:40;-0.70;67.70
1155;DHT22;566;48.414;9.118;2022-11-13T06:25:08;-0.70;67.10
1155;DHT22;566;48.414;9.118;2022-11-13T06:27:36;-0.50;66.80
1155;DHT22;566;48.414;9.118;2022-11-13T06:30:02;-0.40;66.90
1155;DHT22;566;48.414;9.118;2022-11-13T06:32:28;-0.30;67.10
1155;DHT22;566;48.414;9.118;2022-11-13T06:34:53;-0.30;67.10
1155;DHT22;566;48.414;9.118;2022-11-13T06:37:19;-0.20;66.90
1155;DHT22;566;48.414;9.118;2022-11-13T06:39:45;-0.20;66.90
1155;DHT22;566;48.414;9.118;2022-11-13T06:42:10;-0.10;66.80
1155;DHT22;566;48.414;9.118;2022-11-13T06:44:36;0.00;66.80
1155;DHT22;566;48.414;9.118;2022-11-13T06:47:01;0.00;66.80
1155;DHT22;566;48.414;9.118;2022-11-13T06:49:27;0.10;66.90
1155;DHT22;566;48.414;9.118;2022-11-13T06:51:53;0.10;66.70
1155;DHT22;566;48.414;9.118;2022-11-13T06:54:18;0.20;66.40
1155;DHT22;566;48.414;9.118;2022-11-13T06:56:44;0.30;66.70
1155;DHT22;566;48.414;9.118;2022-11-13T06:59:10;0.30;66.70
1155;DHT22;566;48.414;9.118;2022-11-13T07:01:36;0.40;66.60
1155;DHT22;566;48.414;9.118;2022-11-13T07:04:01;0.50;66.40
1155;DHT22;566;48.414;9.118;2022-11-13T07:06:29;0.70;66.30
1155;DHT22;566;48.414;9.118;2022-11-13T07:08:54;0.60;66.80
1155;DHT22;566;48.414;9.118;2022-11-13T07:11:22;0.70;66.50
1155;DHT22;566;48.414;9.118;2022-11-13T07:13:48;0.70;66.50
1155;DHT22;566;48.414;9.118;2022-11-13T07:16:17;0.60;67.30
1155;DHT22;566;48.414;9.118;2022-11-13T07:18:43;0.60;66.90
1155;DHT22;566;48.414;9.118;2022-11-13T07:21:13;0.60;67.10
1155;DHT22;566;48.414;9.118;2022-11-13T07:23:39;0.70;66.50
1155;DHT22;566;48.414;9.118;2022-11-13T07:26:10;0.70;66.50
1155;DHT22;566;48.414;9.118;2022-11-13T07:28:36;0.80;66.30
1155;DHT22;566;48.414;9.118;2022-11-13T07:31:03;0.90;66.30
1155;DHT22;566;48.414;9.118;2022-11-13T07:33:29;1.00;66.80
1155;DHT22;566;48.414;9.118;2022-11-13T07:35:57;1.00;66.90
1155;DHT22;566;48.414;9.118;2022-11-13T07:38:23;1.10;66.90
1155;DHT22;566;48.414;9.118;2022-11-13T07:40:49;1.10;67.20
1155;DHT22;566;48.414;9.118;2022-11-13T07:43:15;1.30;66.50
1155;DHT22;566;48.414;9.118;2022-11-13T07:45:40;1.40;66.80
1155;DHT22;566;48.414;9.118;2022-11-13T07:48:06;1.60;66.50
1155;DHT22;566;48.414;9.118;2022-11-13T07:50:34;1.70;66.60
1155;DHT22;566;48.414;9.118;2022-11-13T07:53:02;1.80;66.70
1155;DHT22;566;48.414;9.118;2022-11-13T07:55:28;2.00;66.50
1155;DHT22;566;48.414;9.118;2022-11-13T07:57:57;2.10;66.80
1155;DHT22;566;48.414;9.118;2022-11-13T08:00:27;2.30;66.60
1155;DHT22;566;48.414;9.118;2022-11-13T08:02:53;2.30;66.70
1155;DHT22;566;48.414;9.118;2022-11-13T08:05:19;2.40;67.10
1155;DHT22;566;48.414;9.118;2022-11-13T08:07:46;2.50;66.80
1155;DHT22;566;48.414;9.118;2022-11-13T08:10:13;2.80;66.20
1155;DHT22;566;48.414;9.118;2022-11-13T08:12:38;3.00;66.10
1155;DHT22;566;48.414;9.118;2022-11-13T08:15:04;3.20;66.10
1155;DHT22;566;48.414;9.118;2022-11-13T08:17:30;3.40;65.40
1155;DHT22;566;48.414;9.118;2022-11-13T08:19:56;4.10;65.80
1155;DHT22;566;48.414;9.118;2022-11-13T08:22:21;4.90;67.90
1155;DHT22;566;48.414;9.118;2022-11-13T08:24:50;5.60;69.60
1155;DHT22;566;48.414;9.118;2022-11-13T08:27:19;6.10;70.10
1155;DHT22;566;48.414;9.118;2022-11-13T08:29:45;6.90;70.00
1155;DHT22;566;48.414;9.118;2022-11-13T08:32:14;7.80;67.40
1155;DHT22;566;48.414;9.118;2022-11-13T08:34:40;8.80;69.20
1155;DHT22;566;48.414;9.118;2022-11-13T08:37:05;8.90;98.00
1155;DHT22;566;48.414;9.118;2022-11-13T08:39:31;7.90;98.00
1155;DHT22;566;48.414;9.118;2022-11-13T08:41:59;7.50;98.00
1155;DHT22;566;48.414;9.118;2022-11-13T08:44:25;7.80;98.00
1155;DHT22;566;48.414;9.118;2022-11-13T08:46:51;7.80;97.70
1155;DHT22;566;48.414;9.118;2022-11-13T08:49:16;7.20;97.80
1155;DHT22;566;48.414;9.118;2022-11-13T08:51:42;7.20;98.00
1155;DHT22;566;48.414;9.118;2022-11-13T08:54:10;6.90;98.00
1155;DHT22;566;48.414;9.118;2022-11-13T08:56:36;6.90;98.00
1155;DHT22;566;48.414;9.118;2022-11-13T08:59:02;7.60;98.00
1155;DHT22;566;48.414;9.118;2022-11-13T09:01:27;7.40;97.20
1155;DHT22;566;48.414;9.118;2022-11-13T09:03:53;7.60;96.80
1155;DHT22;566;48.414;9.118;2022-11-13T09:06:19;7.40;97.80
1155;DHT22;566;48.414;9.118;2022-11-13T09:08:44;6.90;98.00
1155;DHT22;566;48.414;9.118;2022-11-13T09:11:12;7.00;97.90
1155;DHT22;566;48.414;9.118;2022-11-13T09:13:38;7.10;98.00
1155;DHT22;566;48.414;9.118;2022-11-13T09:16:03;7.30;97.90
1155;DHT22;566;48.414;9.118;2022-11-13T09:18:38;7.70;98.00
1155;DHT22;566;48.414;9.118;2022-11-13T09:21:18;7.80;96.70
1155;DHT22;566;48.414;9.118;2022-11-13T09:23:51;7.10;96.40
1155;DHT22;566;48.414;9.118;2022-11-13T09:26:23;6.40;97.70
1155;DHT22;566;48.414;9.118;2022-11-13T09:28:55;6.10;98.00
1155;DHT22;566;48.414;9.118;2022-11-13T09:31:23;5.80;98.00
1155;DHT22;566;48.414;9.118;2022-11-13T09:33:52;5.60;98.00
1155;DHT22;566;48.414;9.118;2022-11-13T09:36:17;5.70;98.00
1155;DHT22;566;48.414;9.118;2022-11-13T09:38:45;5.90;98.00
1155;DHT22;566;48.414;9.118;2022-11-13T09:41:15;6.10;98.00
1155;DHT22;566;48.414;9.118;2022-11-13T09:43:52;6.40;98.00
1155;DHT22;566;48.414;9.118;2022-11-13T09:49:11;9.00;98.00
1155;DHT22;566;48.414;9.118;2022-11-13T09:51:38;9.70;93.50
1155;DHT22;566;48.414;9.118;2022-11-13T09:54:12;10.20;92.10
1155;DHT22;566;48.414;9.118;2022-11-13T09:56:56;10.10;89.60
1155;DHT22;566;48.414;9.118;2022-11-13T09:59:36;9.90;90.70
1155;DHT22;566;48.414;9.118;2022-11-13T10:10:05;8.70;92.60
1155;DHT22;566;48.414;9.118;2022-11-13T10:12:38;9.00;93.00
1155;DHT22;566;48.414;9.118;2022-11-13T10:15:04;9.20;93.00
1155;DHT22;566;48.414;9.118;2022-11-13T10:17:36;9.10;91.90
1155;DHT22;566;48.414;9.118;2022-11-13T10:22:36;9.30;91.40
1155;DHT22;566;48.414;9.118;2022-11-13T10:25:15;9.20;92.70
1155;DHT22;566;48.414;9.118;2022-11-13T10:27:48;9.40;93.20
1155;DHT22;566;48.414;9.118;2022-11-13T10:30:16;9.70;92.30
1155;DHT22;566;48.414;9.118;2022-11-13T10:32:43;9.60;91.00
1155;DHT22;566;48.414;9.118;2022-11-13T10:35:36;9.50;90.80
1155;DHT22;566;48.414;9.118;2022-11-13T10:40:51;9.30;91.80
1155;DHT22;566;48.414;9.118;2022-11-13T10:43:27;9.70;91.90
1155;DHT22;566;48.414;9.118;2022-11-13T10:46:02;9.90;90.40
1155;DHT22;566;48.414;9.118;2022-11-13T10:48:37;9.40;92.00
1155;DHT22;566;48.414;9.118;2022-11-13T10:51:14;9.40;93.00
1155;DHT22;566;48.414;9.118;2022-11-13T10:53:45;9.60;93.20
1155;DHT22;566;48.414;9.118;2022-11-13T11:01:35;10.30;92.20
1155;DHT22;566;48.414;9.118;2022-11-13T11:04:27;10.60;91.90
1155;DHT22;566;48.414;9.118;2022-11-13T11:07:03;10.60;90.80
1155;DHT22;566;48.414;9.118;2022-11-13T11:09:31;10.80;91.20
1155;DHT22;566;48.414;9.118;2022-11-13T11:20:08;10.70;90.80
1155;DHT22;566;48.414;9.118;2022-11-13T11:22:40;10.80;90.30
1155;DHT22;566;48.414;9.118;2022-11-13T11:25:11;10.90;91.00
1155;DHT22;566;48.414;9.118;2022-11-13T11:27:47;10.80;90.90
1155;DHT22;566;48.414;9.118;2022-11-13T11:30:19;10.70;90.30
1155;DHT22;566;48.414;9.118;2022-11-13T11:35:52;10.60;90.40
1155;DHT22;566;48.414;9.118;2022-11-13T11:41:12;10.80;89.20
1155;DHT22;566;48.414;9.118;2022-11-13T11:43:43;10.90;88.20
1155;DHT22;566;48.414;9.118;2022-11-13T11:46:16;10.70;88.80
1155;DHT22;566;48.414;9.118;2022-11-13T11:48:44;10.60;88.00
1155;DHT22;566;48.414;9.118;2022-11-13T11:59:33;10.60;88.40
1155;DHT22;566;48.414;9.118;2022-11-13T12:08:17;11.20;85.70
1155;DHT22;566;48.414;9.118;2022-11-13T12:10:37;10.90;86.10
1155;DHT22;566;48.414;9.118;2022-11-13T12:13:31;10.60;86.40
1155;DHT22;566;48.414;9.118;2022-11-13T12:16:26;10.30;89.50
1155;DHT22;566;48.414;9.118;2022-11-13T12:19:14;10.30;90.60
1155;DHT22;566;48.414;9.118;2022-11-13T12:24:49;10.10;90.80
1155;DHT22;566;48.414;9.118;2022-11-13T12:27:33;10.30;90.00
1155;DHT22;566;48.414;9.118;2022-11-13T12:32:33;10.00;90.50
1155;DHT22;566;48.414;9.118;2022-11-13T12:35:25;10.10;91.40
1155;DHT22;566;48.414;9.118;2022-11-13T12:40:28;10.40;91.30
1155;DHT22;566;48.414;9.118;2022-11-13T12:46:06;10.70;89.00
1155;DHT22;566;48.414;9.118;2022-11-13T12:48:44;10.60;88.40
1155;DHT22;566;48.414;9.118;2022-11-13T12:51:15;10.10;89.20
1155;DHT22;566;48.414;9.118;2022-11-13T12:53:52;9.80;91.60
1155;DHT22;566;48.414;9.118;2022-11-13T12:58:54;10.10;90.90
1155;DHT22;566;48.414;9.118;2022-11-13T13:01:27;10.00;91.40
1155;DHT22;566;48.414;9.118;2022-11-13T13:04:41;10.20;91.60
1155;DHT22;566;48.414;9.118;2022-11-13T13:13:15;10.40;89.80
1155;DHT22;566;48.414;9.118;2022-11-13T13:15:44;10.40;89.70
1155;DHT22;566;48.414;9.118;2022-11-13T13:20:56;10.70;89.20
1155;DHT22;566;48.414;9.118;2022-11-13T13:23:30;10.70;89.20
1155;DHT22;566;48.414;9.118;2022-11-13T13:28:29;10.70;89.10
1155;DHT22;566;48.414;9.118;2022-11-13T13:33:50;10.60;89.50
1155;DHT22;566;48.414;9.118;2022-11-13T13:36:41;10.50;90.10
1155;DHT22;566;48.414;9.118;2022-11-13T13:47:37;10.50;91.40
1155;DHT22;566;48.414;9.118;2022-11-13T13:50:11;10.70;91.00
1155;DHT22;566;48.414;9.118;2022-11-13T13:52:38;10.80;90.00
1155;DHT22;566;48.414;9.118;2022-11-13T13:55:06;10.60;89.70
1155;DHT22;566;48.414;9.118;2022-11-13T13:57:33;10.50;89.70
1155;DHT22;566;48.414;9.118;2022-11-13T14:00:10;10.50;90.20
1155;DHT22;566;48.414;9.118;2022-11-13T14:02:47;10.50;91.20
1155;DHT22;566;48.414;9.118;2022-11-13T14:05:39;10.40;90.30
1155;DHT22;566;48.414;9.118;2022-11-13T14:08:19;10.40;90.20
1155;DHT22;566;48.414;9.118;2022-11-13T14:10:45;10.50;90.50
1155;DHT22;566;48.414;9.118;2022-11-13T14:13:25;10.50;89.70
1155;DHT22;566;48.414;9.118;2022-11-13T14:16:06;10.60;90.10
1155;DHT22;566;48.414;9.118;2022-11-13T14:18:33;10.70;89.90
1155;DHT22;566;48.414;9.118;2022-11-13T14:21:13;10.70;88.70
1155;DHT22;566;48.414;9.118;2022-11-13T14:23:47;10.60;89.40
1155;DHT22;566;48.414;9.118;2022-11-13T14:26:13;10.70;89.90
1155;DHT22;566;48.414;9.118;2022-11-13T14:28:57;10.80;88.80
1155;DHT22;566;48.414;9.118;2022-11-13T14:31:32;10.70;89.20
1155;DHT22;566;48.414;9.118;2022-11-13T14:34:20;10.80;89.30
1155;DHT22;566;48.414;9.118;2022-11-13T14:36:46;11.00;89.70
1155;DHT22;566;48.414;9.118;2022-11-13T14:39:23;11.30;88.00
1155;DHT22;566;48.414;9.118;2022-11-13T14:41:57;11.50;87.60
1155;DHT22;566;48.414;9.118;2022-11-13T14:44:29;11.70;86.90
1155;DHT22;566;48.414;9.118;2022-11-13T14:47:04;11.80;86.80
1155;DHT22;566;48.414;9.118;2022-11-13T14:49:35;12.00;86.20
1155;DHT22;566;48.414;9.118;2022-11-13T14:52:01;12.00;85.40
1155;DHT22;566;48.414;9.118;2022-11-13T14:54:35;11.90;86.10
1155;DHT22;566;48.414;9.118;2022-11-13T14:57:12;11.90;85.90
1155;DHT22;566;48.414;9.118;2022-11-13T14:59:39;12.10;85.60
1155;DHT22;566;48.414;9.118;2022-11-13T15:02:10;12.40;85.20
1155;DHT22;566;48.414;9.118;2022-11-13T15:04:36;12.40;84.50
1155;DHT22;566;48.414;9.118;2022-11-13T15:07:17;12.30;85.20
1155;DHT22;566;48.414;9.118;2022-11-13T15:09:43;12.40;84.60
1155;DHT22;566;48.414;9.118;2022-11-13T15:12:13;12.00;84.60
1155;DHT22;566;48.414;9.118;2022-11-13T15:14:39;11.60;84.90
1155;DHT22;566;48.414;9.118;2022-11-13T15:17:09;11.40;85.60
1155;DHT22;566;48.414;9.118;2022-11-13T15:19:38;11.20;86.40
1155;DHT22;566;48.414;9.118;2022-11-13T15:22:11;10.90;87.80
1155;DHT22;566;48.414;9.118;2022-11-13T15:24:37;10.80;89.00
1155;DHT22;566;48.414;9.118;2022-11-13T15:27:03;10.70;89.10
1155;DHT22;566;48.414;9.118;2022-11-13T15:29:30;10.50;90.30
1155;DHT22;566;48.414;9.118;2022-11-13T15:31:56;10.30;91.20
1155;DHT22;566;48.414;9.118;2022-11-13T15:34:22;10.20;91.80
1155;DHT22;566;48.414;9.118;2022-11-13T15:36:49;10.00;92.30
1155;DHT22;566;48.414;9.118;2022-11-13T15:39:15;9.80;92.70
1155;DHT22;566;48.414;9.118;2022-11-13T15:41:41;9.20;93.80
1155;DHT22;566;48.414;9.118;2022-11-13T15:44:12;8.70;95.20
1155;DHT22;566;48.414;9.118;2022-11-13T15:46:38;8.20;96.30
1155;DHT22;566;48.414;9.118;2022-11-13T15:49:15;7.70;97.20
1155;DHT22;566;48.414;9.118;2022-11-13T15:51:50;7.30;97.90
1155;DHT22;566;48.414;9.118;2022-11-13T15:54:26;6.90;98.00
1155;DHT22;566;48.414;9.118;2022-11-13T15:56:54;6.60;98.00
1155;DHT22;566;48.414;9.118;2022-11-13T15:59:22;6.40;97.80
1155;DHT22;566;48.414;9.118;2022-11-13T16:01:48;6.10;97.80
1155;DHT22;566;48.414;9.118;2022-11-13T16:04:14;5.90;97.60
1155;DHT22;566;48.414;9.118;2022-11-13T16:06:41;5.70;96.60
1155;DHT22;566;48.414;9.118;2022-11-13T16:09:14;5.60;96.50
1155;DHT22;566;48.414;9.118;2022-11-13T16:11:41;5.40;95.80
1155;DHT22;566;48.414;9.118;2022-11-13T16:14:07;5.30;95.40
1155;DHT22;566;48.414;9.118;2022-11-13T16:16:38;5.20;94.40
1155;DHT22;566;48.414;9.118;2022-11-13T16:19:18;5.00;94.30
1155;DHT22;566;48.414;9.118;2022-11-13T16:21:45;5.00;93.70
1155;DHT22;566;48.414;9.118;2022-11-13T16:24:11;4.90;94.00
1155;DHT22;566;48.414;9.118;2022-11-13T16:26:38;4.80;93.70
1155;DHT22;566;48.414;9.118;2022-11-13T16:29:21;4.60;93.30
1155;DHT22;566;48.414;9.118;2022-11-13T16:31:50;4.50;92.10
1155;DHT22;566;48.414;9.118;2022-11-13T16:34:16;4.40;91.40
1155;DHT22;566;48.414;9.118;2022-11-13T16:36:43;4.30;91.50
1155;DHT22;566;48.414;9.118;2022-11-13T16:39:14;4.20;90.30
1155;DHT22;566;48.414;9.118;2022-11-13T16:41:40;4.20;89.30
1155;DHT22;566;48.414;9.118;2022-11-13T16:44:06;4.20;88.80
1155;DHT22;566;48.414;9.118;2022-11-13T16:46:33;4.10;88.80
1155;DHT22;566;48.414;9.118;2022-11-13T16:49:00;4.10;86.60
1155;DHT22;566;48.414;9.118;2022-11-13T16:51:26;4.20;88.00
1155;DHT22;566;48.414;9.118;2022-11-13T16:53:57;4.10;88.30
1155;DHT22;566;48.414;9.118;2022-11-13T16:56:35;4.00;88.20
1155;DHT22;566;48.414;9.118;2022-11-13T16:59:00;4.00;87.40
1155;DHT22;566;48.414;9.118;2022-11-13T17:01:26;3.90;88.20
1155;DHT22;566;48.414;9.118;2022-11-13T17:03:52;3.80;88.40
1155;DHT22;566;48.414;9.118;2022-11-13T17:06:27;3.60;88.40
1155;DHT22;566;48.414;9.118;2022-11-13T17:08:55;3.50;87.30
1155;DHT22;566;48.414;9.118;2022-11-13T17:11:22;3.60;85.10
1155;DHT22;566;48.414;9.118;2022-11-13T17:13:49;3.70;83.50
1155;DHT22;566;48.414;9.118;2022-11-13T17:16:15;3.70;83.70
1155;DHT22;566;48.414;9.118;2022-11-13T17:18:41;3.80;82.70
1155;DHT22;566;48.414;9.118;2022-11-13T17:21:07;4.00;82.50
1155;DHT22;566;48.414;9.118;2022-11-13T17:23:33;4.10;82.90
1155;DHT22;566;48.414;9.118;2022-11-13T17:26:00;4.00;84.20
1155;DHT22;566;48.414;9.118;2022-11-13T17:28:26;3.80;85.20
1155;DHT22;566;48.414;9.118;2022-11-13T17:30:51;3.80;84.50
1155;DHT22;566;48.414;9.118;2022-11-13T17:33:17;3.60;84.20
1155;DHT22;566;48.414;9.118;2022-11-13T17:35:43;3.60;85.20
1155;DHT22;566;48.414;9.118;2022-11-13T17:38:14;3.50;85.60
1155;DHT22;566;48.414;9.118;2022-11-13T17:40:39;3.50;83.70
1155;DHT22;566;48.414;9.118;2022-11-13T17:43:08;3.30;85.30
1155;DHT22;566;48.414;9.118;2022-11-13T17:45:37;3.30;83.50
1155;DHT22;566;48.414;9.118;2022-11-13T17:48:03;3.30;83.30
1155;DHT22;566;48.414;9.118;2022-11-13T17:50:32;3.40;82.90
1155;DHT22;566;48.414;9.118;2022-11-13T17:52:58;3.40;82.80
1155;DHT22;566;48.414;9.118;2022-11-13T17:55:23;3.30;83.50
1155;DHT22;566;48.414;9.118;2022-11-13T17:57:49;3.10;83.50
1155;DHT22;566;48.414;9.118;2022-11-13T18:00:15;3.00;81.20
1155;DHT22;566;48.414;9.118;2022-11-13T18:02:41;3.00;82.00
1155;DHT22;566;48.414;9.118;2022-11-13T18:05:07;2.90;79.60
1155;DHT22;566;48.414;9.118;2022-11-13T18:07:35;3.00;78.10
1155;DHT22;566;48.414;9.118;2022-11-13T18:10:01;3.20;77.80
1155;DHT22;566;48.414;9.118;2022-11-13T18:12:26;3.10;78.30
1155;DHT22;566;48.414;9.118;2022-11-13T18:14:53;3.10;78.10